Allen Park, Michigan
Current Conditions -  °F | °C
As of 10:53 AM on Monday 24 Nov 2014 (Local Time) from KDTW Reporting Station
Light Rain Light Rain  
Wind Chill: 55°   Ceiling: 2700
Heat Index: 55°   Visibility: 9mi
Dew Point: 52°   Wind: 12mph
Humidity: 89%   Direction: 180°S
Pressure: 29.14"   Gusts: NA
Location:  42.26°N, 83.22°W
Report Text: KDTW 241553Z 18010KT 9SM -RA BKN027 OVC065 13/11 A2914 RMK AO2 SLP868 P0012 T01280111
Loading
Personal Weather Stations






























Interactive Weather Map New forecast layout! Learn more

10-Day Weather Forecast

Advertisements
Track Severe Weather on mobile